»·PEaware :: N305EL KSEA-KPDX

N305EL :: KSEA-KPDX

FLIGHT INFORMATION

Flight Status: Arrived
Operator: Privately registered:
United States
More flights under this callsign
Pilot: Cullen C. (26241)
Aircraft: BEECH AIRCRAFT A90-E90 KING AIR
(BE9L)
More flights by this aircraft type
Origin: KSEA Seattle-Tacoma Intl
United States
Destination: KPDX Portland Intl
United States
More flights between these airports :: More routes between these airports
Route: +SEA7 SEA HELNS6
File this flight plan on PilotEdge
Remarks:
Altitude:
(Current/Filed)
13,000ft
Speed:
(Current/Filed)
190kts
Departed: 07-Oct-20 02:32 PM
Arrived: 07-Oct-20 03:13 PM
Distance/Time
Traveled:
112nm/0:41
Distance/Time
To Go:
Arrived

Flight Plot

Page will automatically refresh every two minutes.

Flight plan parsing failed; only flown route is shown


Map Options




Map Legend


Flown Route
Filed Route
Departure Airport
Arrival Airport
Navaid (VOR, NDB)
Fix

Horizontal Profiles

Position Reports

Time Latitude Longitude Heading Altitude Ground
Speed
07-Oct-20 13:51 47.436545 -122.303385 245 356ft 0kts
07-Oct-20 13:52 47.436545 -122.303385 245 356ft 0kts
07-Oct-20 13:53 47.436545 -122.303385 245 356ft 0kts
07-Oct-20 13:54 47.436545 -122.303385 245 356ft 0kts
07-Oct-20 13:55 47.436545 -122.303385 245 356ft 0kts
07-Oct-20 13:56 47.436545 -122.303385 245 356ft 0kts
07-Oct-20 13:57 47.436545 -122.303385 245 356ft 0kts
07-Oct-20 13:58 47.436545 -122.303385 245 356ft 0kts
07-Oct-20 13:59 47.436545 -122.303385 245 356ft 0kts
07-Oct-20 14:00 47.436545 -122.303385 245 356ft 0kts
07-Oct-20 14:01 47.436545 -122.303385 245 356ft 0kts
07-Oct-20 14:02 47.436545 -122.303385 245 356ft 0kts
07-Oct-20 14:03 47.436545 -122.303385 245 356ft 0kts
07-Oct-20 14:04 47.436545 -122.303385 245 356ft 0kts
07-Oct-20 14:05 47.436545 -122.303385 245 356ft 0kts
07-Oct-20 14:06 47.436545 -122.303385 245 356ft 0kts
07-Oct-20 14:07 47.436545 -122.303385 245 356ft 0kts
07-Oct-20 14:08 47.436545 -122.303385 244 356ft 0kts
07-Oct-20 14:09 47.436545 -122.303385 244 356ft 0kts
07-Oct-20 14:10 47.436544 -122.303386 245 356ft 0kts
07-Oct-20 14:11 47.436544 -122.303387 245 356ft 0kts
07-Oct-20 14:12 47.436544 -122.303387 245 356ft 0kts
07-Oct-20 14:13 47.436535 -122.303415 246 356ft 0kts
07-Oct-20 14:14 47.436531 -122.303428 246 356ft 0kts
07-Oct-20 14:15 47.436531 -122.303428 246 356ft 0kts
07-Oct-20 14:16 47.436531 -122.303428 246 356ft 0kts
07-Oct-20 14:17 47.436531 -122.303428 246 356ft 0kts
07-Oct-20 14:18 47.436531 -122.303428 246 356ft 0kts
07-Oct-20 14:19 47.436531 -122.303428 246 356ft 0kts
07-Oct-20 14:20 47.436531 -122.303428 246 356ft 0kts
07-Oct-20 14:21 47.436531 -122.303429 246 356ft 0kts
07-Oct-20 14:22 47.436531 -122.303428 246 356ft 0kts
07-Oct-20 14:23 47.436531 -122.303428 246 356ft 0kts
07-Oct-20 14:24 47.436531 -122.303428 246 356ft 0kts
07-Oct-20 14:25 47.437130 -122.306380 5 355ft 13kts
07-Oct-20 14:26 47.441265 -122.306363 0 374ft 18kts
07-Oct-20 14:27 47.446407 -122.306315 1 390ft 20kts
07-Oct-20 14:28 47.452917 -122.306243 0 418ft 23kts
07-Oct-20 14:29 47.459658 -122.306173 0 432ft 26kts
07-Oct-20 14:30 47.463657 -122.306359 310 411ft 2kts
07-Oct-20 14:31 47.444530 -122.306453 178 1113ft 164kts
07-Oct-20 14:32 47.386734 -122.305966 181 2455ft 226kts
07-Oct-20 14:33 47.328104 -122.305446 180 2978ft 221kts
07-Oct-20 14:34 47.267746 -122.305191 181 3359ft 213kts
07-Oct-20 14:35 47.211334 -122.306015 181 4339ft 201kts
07-Oct-20 14:36 47.158720 -122.306723 182 5772ft 181kts
07-Oct-20 14:37 47.110065 -122.307390 182 7262ft 170kts
07-Oct-20 14:38 47.064092 -122.308030 183 8753ft 161kts
07-Oct-20 14:39 47.020769 -122.308639 183 10241ft 151kts
07-Oct-20 14:40 46.980704 -122.309202 183 11719ft 138kts
07-Oct-20 14:41 46.943738 -122.309584 182 12965ft 141kts
07-Oct-20 14:42 46.896703 -122.309622 181 12984ft 189kts
07-Oct-20 14:43 46.843952 -122.309625 181 12983ft 203kts
07-Oct-20 14:44 46.788429 -122.309617 181 12982ft 206kts
07-Oct-20 14:45 46.732061 -122.309618 181 12982ft 207kts
07-Oct-20 14:46 46.675451 -122.309618 181 12980ft 207kts
07-Oct-20 14:47 46.618616 -122.309616 181 12978ft 207kts
07-Oct-20 14:48 46.561433 -122.309614 181 12976ft 207kts
07-Oct-20 14:49 46.503948 -122.309613 181 12973ft 207kts
07-Oct-20 14:50 46.446220 -122.309620 181 12755ft 207kts
07-Oct-20 14:51 46.389021 -122.309626 181 12249ft 204kts
07-Oct-20 14:52 46.332368 -122.309618 181 11743ft 204kts
07-Oct-20 14:53 46.275682 -122.309615 182 11236ft 204kts
07-Oct-20 14:54 46.221589 -122.329499 202 10727ft 203kts
07-Oct-20 14:55 46.168564 -122.358986 202 10217ft 205kts
07-Oct-20 14:56 46.116079 -122.388121 200 9959ft 196kts
07-Oct-20 14:57 46.077677 -122.441741 235 9220ft 212kts
07-Oct-20 14:58 46.043031 -122.511457 235 8210ft 215kts
07-Oct-20 14:59 46.007598 -122.581334 235 7202ft 217kts
07-Oct-20 15:00 45.971691 -122.651118 234 6200ft 219kts
07-Oct-20 15:01 45.932917 -122.715796 225 5691ft 209kts
07-Oct-20 15:02 45.889377 -122.775362 225 4698ft 220kts
07-Oct-20 15:03 45.845247 -122.836132 224 3957ft 213kts
07-Oct-20 15:04 45.790771 -122.854120 160 3919ft 204kts
07-Oct-20 15:05 45.739243 -122.823794 207 3409ft 208kts
07-Oct-20 15:06 45.689594 -122.841330 130 2941ft 202kts
07-Oct-20 15:07 45.662850 -122.774779 127 2934ft 184kts
07-Oct-20 15:08 45.643035 -122.718328 120 2431ft 127kts
07-Oct-20 15:09 45.625970 -122.676169 113 1403ft 119kts
07-Oct-20 15:10 45.610005 -122.633897 119 635ft 105kts
07-Oct-20 15:11 45.597193 -122.601693 120 67ft 81kts
07-Oct-20 15:12 45.589926 -122.583225 119 19ft 33kts

Navigation Log

Ident Type
Flight plan parsing failed, navigation log unavailable